Time;durP1;ratioP1;P1;durP2;ratioP2;P2;SDS_P1;SDS_P2;PMS_P1;PMS_P2;Temp;Humidity;BMP_temperature;BMP_pressure;BME280_temperature;BME280_humidity;BME280_pressure;Samples;Min_cycle;Max_cycle;Signal;HPM_P1;HPM_P2
2024/02/15 00:02:24;;;;;;;11.95;6.47;;;;;;;4.89;64.34;100880.22;1761461;80;25602;-58
2024/02/15 00:04:51;;;;;;;13.30;6.42;;;;;;;4.86;64.22;100878.34;1760011;81;27326;-57
2024/02/15 00:07:17;;;;;;;13.98;6.97;;;;;;;4.88;64.43;100883.45;1759979;81;25727;-54
2024/02/15 00:09:43;;;;;;;11.88;6.42;;;;;;;4.89;64.35;100884.25;1760057;81;25622;-58
2024/02/15 00:12:12;;;;;;;14.55;6.08;;;;;;;4.85;64.49;100877.25;1759980;81;25671;-57
2024/02/15 00:14:40;;;;;;;13.80;6.53;;;;;;;4.83;64.58;100878.84;1760101;81;25558;-58
2024/02/15 00:17:08;;;;;;;10.48;5.83;;;;;;;4.82;64.75;100873.77;1760026;81;27326;-58
2024/02/15 00:19:34;;;;;;;14.43;6.50;;;;;;;4.82;64.86;100882.61;1760037;81;25616;-58
2024/02/15 00:22:02;;;;;;;12.28;6.25;;;;;;;4.83;64.83;100882.06;1740950;81;25414;-58
2024/02/15 00:24:30;;;;;;;12.05;6.50;;;;;;;4.81;64.75;100876.16;1760004;81;25546;-58
2024/02/15 00:26:56;;;;;;;11.40;6.62;;;;;;;4.80;64.90;100875.87;1760035;81;25600;-55
2024/02/15 00:29:24;;;;;;;14.35;6.47;;;;;;;4.77;64.94;100876.41;1760010;81;27313;-55
2024/02/15 00:31:51;;;;;;;11.00;6.08;;;;;;;4.76;65.01;100882.27;1759935;81;26127;-56
2024/02/15 00:34:18;;;;;;;12.40;6.35;;;;;;;4.75;65.21;100875.83;1760034;81;25483;-55
2024/02/15 00:36:44;;;;;;;10.80;5.92;;;;;;;4.75;65.36;100869.95;1759924;81;26324;-58
2024/02/15 00:39:13;;;;;;;15.65;7.00;;;;;;;4.75;65.24;100875.31;1760037;81;25421;-56
2024/02/15 00:41:41;;;;;;;11.80;6.55;;;;;;;4.76;65.37;100876.91;1760040;81;27855;-54
2024/02/15 00:44:11;;;;;;;12.63;7.40;;;;;;;4.75;65.44;100875.31;1759892;81;25746;-58
2024/02/15 00:46:41;;;;;;;11.97;6.93;;;;;;;4.74;65.50;100874.23;1760265;81;25461;-55
2024/02/15 00:49:08;;;;;;;15.85;6.35;;;;;;;4.70;65.50;100871.77;1759979;81;26497;-55
2024/02/15 00:51:36;;;;;;;13.50;7.08;;;;;;;4.71;65.50;100880.89;1760145;81;25560;-55
2024/02/15 00:54:04;;;;;;;13.50;6.30;;;;;;;4.68;65.62;100878.20;1759986;81;29428;-58
2024/02/15 00:56:32;;;;;;;17.75;7.47;;;;;;;4.67;65.70;100873.90;1759861;81;25543;-59
2024/02/15 00:59:00;;;;;;;14.00;7.30;;;;;;;4.66;65.72;100876.29;1760030;81;25466;-57
2024/02/15 01:01:27;;;;;;;13.78;6.87;;;;;;;4.66;65.96;100878.97;1766669;80;25682;-58
2024/02/15 01:03:53;;;;;;;15.83;7.37;;;;;;;4.67;65.81;100877.12;1780469;80;25388;-58
2024/02/15 01:06:20;;;;;;;16.55;6.95;;;;;;;4.65;65.96;100868.53;1780446;80;27447;-58
2024/02/15 01:08:46;;;;;;;15.70;7.45;;;;;;;4.65;65.86;100872.02;1780331;80;25519;-57
2024/02/15 01:11:13;;;;;;;15.63;7.62;;;;;;;4.64;66.00;100866.91;1780398;80;25437;-57
2024/02/15 01:13:47;;;;;;;14.95;7.28;;;;;;;4.63;65.95;100869.30;1780411;80;26158;-58
2024/02/15 01:16:13;;;;;;;15.95;7.80;;;;;;;4.63;66.04;100869.30;1780428;80;25566;-58
2024/02/15 01:18:39;;;;;;;19.23;8.38;;;;;;;4.63;66.04;100867.95;1780438;80;27723;-58
2024/02/15 01:21:06;;;;;;;15.58;7.17;;;;;;;4.63;65.89;100875.48;1780362;80;25460;-58
2024/02/15 01:23:36;;;;;;;13.80;7.47;;;;;;;4.65;65.98;100869.88;1780532;80;25373;-58
2024/02/15 01:26:04;;;;;;;12.80;6.97;;;;;;;4.64;66.04;100873.06;1780037;80;25571;-58
2024/02/15 01:28:32;;;;;;;13.93;7.53;;;;;;;4.64;66.07;100871.72;1780601;80;25440;-58
2024/02/15 01:30:59;;;;;;;15.45;7.53;;;;;;;4.64;66.10;100866.36;1780412;80;27323;-58
2024/02/15 01:33:26;;;;;;;14.47;7.17;;;;;;;4.66;66.08;100865.57;1780376;80;25448;-58
2024/02/15 01:35:53;;;;;;;14.40;6.67;;;;;;;4.67;66.29;100865.06;1780331;80;25575;-58
2024/02/15 01:38:21;;;;;;;18.20;7.28;;;;;;;4.67;66.26;100863.72;1780395;80;25700;-58
2024/02/15 01:40:49;;;;;;;14.60;7.03;;;;;;;4.68;66.10;100861.30;1780418;80;25474;-56
2024/02/15 01:43:15;;;;;;;14.85;7.65;;;;;;;4.67;66.12;100862.38;1780393;80;28103;-58
2024/02/15 01:45:43;;;;;;;14.28;7.35;;;;;;;4.67;66.09;100862.38;1780338;80;25561;-59
2024/02/15 01:48:12;;;;;;;78.65;72.97;;;;;;;4.66;66.18;100856.19;1780393;80;25535;-56
2024/02/15 01:50:40;;;;;;;10.72;4.92;;;;;;;4.62;66.22;100846.26;1780611;80;25616;-58
2024/02/15 01:53:09;;;;;;;12.00;7.12;;;;;;;4.65;66.26;100850.58;1780444;80;25606;-59
2024/02/15 01:55:39;;;;;;;23.77;14.53;;;;;;;4.65;66.28;100847.89;1780427;80;27320;-59
2024/02/15 01:58:08;;;;;;;76.33;70.00;;;;;;;4.64;66.53;100856.98;1780383;80;25393;-55
2024/02/15 02:00:39;;;;;;;15.63;7.87;;;;;;;4.64;66.53;100856.98;1780343;80;25397;-55
2024/02/15 02:03:09;;;;;;;25.27;8.08;;;;;;;4.63;66.37;100841.98;1773632;80;25613;-59
2024/02/15 02:05:37;;;;;;;15.30;7.08;;;;;;;4.59;66.41;100845.42;1764887;81;25473;-58
2024/02/15 02:08:09;;;;;;;16.80;7.35;;;;;;;4.58;66.72;100837.09;1764719;81;27306;-58
2024/02/15 02:10:39;;;;;;;14.28;6.92;;;;;;;4.57;66.60;100845.67;1764748;81;26024;-58
2024/02/15 02:13:07;;;;;;;;;;;;;;;4.57;66.55;100838.98;1767453;81;25386;-59
2024/02/15 02:15:37;;;;;;;13.62;7.65;;;;;;;4.58;66.78;100833.08;1764818;81;26346;-58
2024/02/15 02:18:06;;;;;;;15.43;7.58;;;;;;;4.57;66.82;100836.84;1764841;81;25393;-59
2024/02/15 02:20:35;;;;;;;17.05;7.80;;;;;;;4.56;66.87;100837.35;1764994;81;27296;-57
2024/02/15 02:23:16;;;;;;;17.77;7.57;;;;;;;4.55;66.85;100839.77;1764972;80;25638;-57
2024/02/15 02:25:49;;;;;;;16.40;7.92;;;;;;;4.56;66.90;100841.91;1764868;81;25621;-59
2024/02/15 02:28:16;;;;;;;16.12;7.80;;;;;;;4.55;66.92;100838.43;1743484;81;26264;-59
2024/02/15 02:30:45;;;;;;;17.77;8.45;;;;;;;4.57;67.02;100836.84;1764997;80;25621;-56
2024/02/15 02:33:18;;;;;;;17.95;8.68;;;;;;;4.57;67.00;100826.13;1764816;81;27263;-59
2024/02/15 02:35:41;;;;;;;14.58;8.23;;;;;;;4.55;66.95;100824.23;1764085;81;26686;-58
2024/02/15 02:38:09;;;;;;;14.18;8.25;;;;;;;4.54;66.98;100829.31;1764750;81;25436;-58
2024/02/15 02:40:36;;;;;;;15.35;8.50;;;;;;;4.54;67.09;100831.98;1764701;80;27859;-59
2024/02/15 02:43:04;;;;;;;14.83;8.30;;;;;;;4.53;67.12;100829.02;1764927;80;25560;-59
2024/02/15 02:45:34;;;;;;;16.27;8.88;;;;;;;4.53;67.24;100833.87;1764818;81;27587;-59
2024/02/15 02:48:01;;;;;;;15.10;7.93;;;;;;;4.53;67.22;100835.20;1765004;81;25608;-58
2024/02/15 02:50:27;;;;;;;21.17;8.35;;;;;;;4.51;67.19;100838.65;1764785;80;25593;-59
2024/02/15 02:52:55;;;;;;;18.00;8.18;;;;;;;4.52;67.29;100838.14;1764868;80;27359;-56
2024/02/15 02:55:23;;;;;;;16.02;7.95;;;;;;;4.51;67.39;100837.30;1765107;80;25547;-58
2024/02/15 02:57:49;;;;;;;16.57;8.85;;;;;;;4.51;67.31;100837.84;1765017;80;27419;-58
2024/02/15 03:00:19;;;;;;;15.15;7.90;;;;;;;4.49;67.49;100836.25;1764823;81;27212;-58
2024/02/15 03:02:49;;;;;;;18.17;8.15;;;;;;;4.50;67.49;100839.73;1773527;80;25603;-57
2024/02/15 03:05:20;;;;;;;14.50;8.23;;;;;;;4.50;67.51;100841.06;1780693;80;25891;-58
2024/02/15 03:07:45;;;;;;;12.85;8.10;;;;;;;4.51;67.58;100837.30;1780441;80;25527;-58
2024/02/15 03:10:16;;;;;;;17.12;8.13;;;;;;;4.51;67.61;100833.83;1780600;80;27981;-59
2024/02/15 03:12:46;;;;;;;15.90;8.03;;;;;;;4.53;67.68;100834.38;1780608;80;25481;-59
2024/02/15 03:15:15;;;;;;;18.42;8.93;;;;;;;4.54;67.71;100832.78;1780578;80;25392;-59
2024/02/15 03:17:47;;;;;;;19.62;8.58;;;;;;;4.55;67.69;100834.95;1780637;80;25640;-59
2024/02/15 03:20:25;;;;;;;16.52;7.95;;;;;;;4.53;67.46;100837.05;1780596;80;25638;-58
2024/02/15 03:22:44;;;;;;;13.53;7.78;;;;;;;4.53;67.65;100837.89;1779005;80;27336;-59
2024/02/15 03:25:13;;;;;;;21.37;11.35;;;;;;;4.54;67.72;100836.80;1780436;80;25630;-59
2024/02/15 03:27:40;;;;;;;16.62;7.75;;;;;;;4.54;67.75;100843.50;1780670;80;25557;-58
2024/02/15 03:30:12;;;;;;;18.00;8.38;;;;;;;4.56;67.68;100847.27;1780562;80;25971;-58
2024/02/15 03:32:38;;;;;;;16.77;7.70;;;;;;;4.57;67.60;100847.56;1780578;80;25750;-58
2024/02/15 03:35:08;;;;;;;15.65;8.25;;;;;;;4.57;67.63;100841.66;1780543;80;27922;-57
2024/02/15 03:37:36;;;;;;;15.35;7.78;;;;;;;4.58;67.75;100840.61;1780499;80;25597;-58
2024/02/15 03:40:08;;;;;;;17.12;8.23;;;;;;;4.58;67.71;100839.78;1780500;80;25447;-58
2024/02/15 03:42:37;;;;;;;16.95;7.70;;;;;;;4.59;67.80;100844.09;1780526;80;25669;-58
2024/02/15 03:45:08;;;;;;;17.45;7.72;;;;;;;4.59;67.75;100841.41;1780564;80;25444;-56
2024/02/15 03:47:37;;;;;;;15.98;8.03;;;;;;;4.57;67.85;100838.98;1780544;80;27519;-56
2024/02/15 03:50:14;;;;;;;20.12;8.70;;;;;;;4.57;67.86;100836.30;1780558;80;25558;-59
2024/02/15 03:52:38;;;;;;;14.93;7.80;;;;;;;4.58;67.90;100839.78;1779144;80;25470;-58
2024/02/15 03:55:09;;;;;;;9.70;5.75;;;;;;;4.58;67.99;100842.45;1780604;80;26586;-58
2024/02/15 03:57:43;;;;;;;12.65;7.20;;;;;;;4.56;67.88;100842.70;1780494;80;25545;-56
2024/02/15 04:00:24;;;;;;;16.75;7.67;;;;;;;4.56;67.86;100845.93;1780565;80;27597;-59
2024/02/15 04:02:51;;;;;;;16.02;7.92;;;;;;;4.58;68.08;100844.63;1780329;80;25411;-57
2024/02/15 04:05:23;;;;;;;14.63;8.23;;;;;;;4.59;67.98;100842.74;1780532;80;25642;-58
2024/02/15 04:07:52;;;;;;;12.68;7.50;;;;;;;4.63;68.14;100838.48;1780505;80;25705;-58
2024/02/15 04:10:21;;;;;;;;;;;;;;;4.62;67.97;100832.86;1783223;80;25376;-59
2024/02/15 04:12:47;;;;;;;16.02;7.78;;;;;;;4.59;67.93;100834.16;1780625;80;27389;-56
2024/02/15 04:15:17;;;;;;;15.72;8.70;;;;;;;4.57;68.15;100834.16;1780478;80;25608;-55
2024/02/15 04:17:44;;;;;;;13.22;7.85;;;;;;;4.53;68.01;100831.19;1780601;80;25386;-56
2024/02/15 04:20:16;;;;;;;17.75;8.03;;;;;;;4.52;68.21;100832.23;1780522;80;26294;-57
2024/02/15 04:22:43;;;;;;;16.30;9.23;;;;;;;4.52;68.27;100826.87;1780577;80;25376;-57
2024/02/15 04:25:17;;;;;;;14.70;7.95;;;;;;;4.51;68.20;100828.47;1780497;80;28322;-58
2024/02/15 04:27:49;;;;;;;14.78;8.30;;;;;;;4.50;68.26;100826.33;1780418;80;25565;-59
2024/02/15 04:30:19;;;;;;;15.68;8.85;;;;;;;4.48;68.27;100823.11;1780525;80;25445;-59
2024/02/15 04:32:48;;;;;;;16.23;8.78;;;;;;;4.47;68.35;100828.17;1780447;80;25658;-60
2024/02/15 04:35:19;;;;;;;16.80;8.53;;;;;;;4.46;68.29;100830.06;1780521;80;25453;-59
2024/02/15 04:37:46;;;;;;;15.35;8.23;;;;;;;4.44;68.35;100834.03;1780425;80;27339;-59
2024/02/15 04:40:13;;;;;;;16.93;9.63;;;;;;;4.43;68.41;100833.78;1780396;80;25618;-60
2024/02/15 04:42:44;;;;;;;16.45;8.33;;;;;;;4.44;68.49;100833.53;1780558;80;25400;-60
2024/02/15 04:45:14;;;;;;;15.35;9.05;;;;;;;4.44;68.58;100829.51;1780440;80;25954;-59
2024/02/15 04:47:51;;;;;;;22.15;9.25;;;;;;;4.42;68.54;100832.95;1780521;80;25401;-60
2024/02/15 04:50:12;;;;;;;16.23;7.80;;;;;;;4.44;68.45;100834.03;1779523;80;27453;-58
2024/02/15 04:52:45;;;;;;;16.87;8.33;;;;;;;4.44;68.53;100836.72;1780344;80;25388;-59
2024/02/15 04:55:09;;;;;;;17.70;8.50;;;;;;;4.43;68.50;100839.14;1780068;80;25570;-59
2024/02/15 04:57:36;;;;;;;15.88;8.38;;;;;;;4.43;68.70;100835.12;1780345;80;25613;-57
2024/02/15 05:00:09;;;;;;;17.27;8.15;;;;;;;4.44;68.60;100839.39;1780432;80;25381;-60
2024/02/15 05:02:40;;;;;;;16.35;9.18;;;;;;;4.43;68.57;100840.47;1777448;80;27389;-59
2024/02/15 05:05:08;;;;;;;18.40;9.20;;;;;;;4.43;68.74;100837.26;1759963;81;25599;-60
2024/02/15 05:07:39;;;;;;;15.03;8.88;;;;;;;4.45;68.67;100842.36;1760047;81;25446;-58
2024/02/15 05:10:09;;;;;;;16.00;8.08;;;;;;;4.45;68.79;100841.02;1759494;81;25633;-56
2024/02/15 05:12:42;;;;;;;14.38;8.50;;;;;;;4.45;68.71;100835.66;1760068;81;25586;-59
2024/02/15 05:15:12;;;;;;;21.62;9.75;;;;;;;4.46;68.64;100834.08;1760011;81;28044;-57
2024/02/15 05:17:41;;;;;;;18.45;8.93;;;;;;;4.43;68.66;100834.58;1759935;81;25538;-57
2024/02/15 05:20:13;;;;;;;23.18;10.08;;;;;;;4.45;68.75;100838.34;1760070;81;25619;-57
2024/02/15 05:22:49;;;;;;;15.88;8.30;;;;;;;4.46;68.83;100846.13;1760006;81;25626;-55
2024/02/15 05:25:15;;;;;;;16.67;8.98;;;;;;;4.46;68.82;100844.79;1758837;81;25542;-58
2024/02/15 05:27:44;;;;;;;16.23;8.43;;;;;;;4.47;68.75;100841.57;1759980;81;27274;-57
2024/02/15 05:30:14;;;;;;;19.95;8.98;;;;;;;4.50;68.88;100842.41;1760008;81;25478;-58
2024/02/15 05:32:43;;;;;;;17.12;9.05;;;;;;;4.48;68.81;100845.34;1759998;81;25579;-59
2024/02/15 05:35:12;;;;;;;18.80;9.60;;;;;;;4.51;68.85;100849.91;1759437;81;25684;-59
2024/02/15 05:37:41;;;;;;;18.48;9.05;;;;;;;4.51;68.76;100845.88;1760081;81;25571;-59
2024/02/15 05:40:15;;;;;;;17.17;9.15;;;;;;;4.49;68.91;100846.97;1760030;81;27392;-60
2024/02/15 05:42:39;;;;;;;17.73;8.45;;;;;;;4.51;68.81;100850.70;1759217;81;25804;-60
2024/02/15 05:45:29;;;;;;;18.77;8.93;;;;;;;4.51;68.87;100847.22;1759970;81;25620;-59
2024/02/15 05:47:58;;;;;;;16.02;9.68;;;;;;;4.53;68.94;100850.45;1760002;81;25959;-60
2024/02/15 05:50:46;;;;;;;14.70;9.28;;;;;;;4.53;69.03;100852.62;1760100;81;25465;-59
2024/02/15 05:53:13;;;;;;;16.10;9.50;;;;;;;4.54;68.89;100850.73;1662662;86;27380;-59
2024/02/15 05:55:44;;;;;;;16.27;9.10;;;;;;;4.54;68.88;100850.73;1644219;87;25661;-60
2024/02/15 05:58:09;;;;;;;13.05;8.10;;;;;;;4.54;68.90;100856.90;1641733;87;25625;-57
2024/02/15 06:00:35;;;;;;;17.02;9.10;;;;;;;4.55;69.02;100860.41;1658994;86;25691;-59
2024/02/15 06:03:02;;;;;;;19.50;9.30;;;;;;;4.55;68.97;100857.19;1644322;87;25600;-59
2024/02/15 06:05:30;;;;;;;17.37;9.63;;;;;;;4.56;69.00;100859.33;1642432;86;27884;-57
2024/02/15 06:07:57;;;;;;;19.15;10.25;;;;;;;4.56;68.91;100856.64;1638433;86;25687;-60
2024/02/15 06:10:26;;;;;;;19.02;9.40;;;;;;;4.53;68.80;100857.15;1634444;87;25691;-59
2024/02/15 06:12:52;;;;;;;15.65;9.28;;;;;;;4.55;68.99;100863.09;1634498;87;26169;-58
2024/02/15 06:15:19;;;;;;;17.95;10.58;;;;;;;4.54;68.93;100864.94;1634323;87;25764;-59
2024/02/15 06:17:49;;;;;;;21.93;9.10;;;;;;;4.53;68.97;100866.02;1634261;87;27452;-60
2024/02/15 06:20:21;;;;;;;19.05;9.15;;;;;;;4.53;69.03;100863.34;1634376;87;25710;-60
2024/02/15 06:22:51;;;;;;;15.20;8.73;;;;;;;4.56;68.96;100870.05;1634360;87;25687;-59
2024/02/15 06:25:20;;;;;;;26.60;9.95;;;;;;;4.56;69.06;100872.18;1634276;87;25627;-59
2024/02/15 06:27:51;;;;;;;15.43;9.27;;;;;;;4.58;69.03;100867.91;1634826;87;26029;-60
2024/02/15 06:41:34;;;;;;;17.37;9.40;;;;;;;4.66;69.04;100887.55;1631088;88;25605;-59
2024/02/15 06:44:00;;;;;;;16.85;9.03;;;;;;;4.65;69.22;100885.95;1630930;88;27713;-58
2024/02/15 06:46:28;;;;;;;19.75;9.88;;;;;;;4.65;69.25;100891.31;1630867;88;25819;-59
2024/02/15 06:48:55;;;;;;;20.70;10.48;;;;;;;4.65;69.32;100885.41;1630905;88;25551;-57
2024/02/15 06:51:21;;;;;;;21.73;10.00;;;;;;;4.67;69.45;100889.98;1630876;88;25634;-55
2024/02/15 06:53:49;;;;;;;19.25;10.63;;;;;;;4.67;69.59;100891.86;1630949;88;25487;-55
2024/02/15 06:56:16;;;;;;;26.85;11.80;;;;;;;4.68;69.73;100892.95;1631272;88;28144;-60
2024/02/15 06:58:44;;;;;;;20.45;10.08;;;;;;;4.69;69.84;100896.42;1630885;88;25509;-59
2024/02/15 07:01:13;;;;;;;19.40;10.70;;;;;;;4.68;70.03;100901.50;1631070;88;25694;-59
2024/02/15 07:03:41;;;;;;;20.95;11.40;;;;;;;4.68;70.15;100896.14;1631030;88;26691;-57
2024/02/15 07:06:07;;;;;;;21.30;11.05;;;;;;;4.71;70.44;100905.55;1631076;88;25462;-59
2024/02/15 07:08:34;;;;;;;27.32;13.18;;;;;;;4.70;70.48;100904.75;1630973;88;27368;-57
2024/02/15 07:11:06;;;;;;;24.20;13.00;;;;;;;4.73;70.59;100911.46;1630945;88;25719;-58
2024/02/15 07:13:33;;;;;;;22.77;12.35;;;;;;;4.69;70.65;100904.47;1631015;88;25653;-59
2024/02/15 07:16:01;;;;;;;27.27;12.20;;;;;;;4.67;70.72;100907.94;1672180;84;25636;-59
2024/02/15 07:18:29;;;;;;;22.65;12.47;;;;;;;4.66;71.00;100907.65;1692534;84;25578;-59
2024/02/15 07:20:59;;;;;;;25.90;13.20;;;;;;;4.65;71.07;100905.51;1692443;84;27406;-59
2024/02/15 07:23:25;;;;;;;60.23;39.35;;;;;;;4.66;71.41;100907.65;1691231;84;25409;-59
2024/02/15 07:25:54;;;;;;;29.25;13.98;;;;;;;4.67;71.61;100906.59;1692541;84;25648;-57
2024/02/15 07:28:22;;;;;;;24.60;13.00;;;;;;;4.70;71.50;100904.75;1692447;84;25840;-57
2024/02/15 07:30:50;;;;;;;28.00;13.03;;;;;;;4.74;71.80;100902.38;1692465;84;25483;-58
2024/02/15 07:33:17;;;;;;;24.50;12.93;;;;;;;4.78;72.30;100902.92;1688217;84;27340;-55
2024/02/15 07:35:45;;;;;;;25.52;12.40;;;;;;;4.81;72.12;100898.94;1687942;85;25643;-57
2024/02/15 07:38:13;;;;;;;25.68;12.98;;;;;;;4.85;72.06;100905.39;1688023;85;25699;-60
2024/02/15 07:40:41;;;;;;;28.25;13.18;;;;;;;4.89;72.22;100909.71;1688024;85;25614;-59
2024/02/15 07:43:08;;;;;;;23.18;13.25;;;;;;;4.90;72.41;100909.45;1688050;85;25558;-61
2024/02/15 07:45:37;;;;;;;25.60;12.70;;;;;;;4.90;72.08;100900.08;1688179;85;27322;-59
2024/02/15 07:48:07;;;;;;;30.30;12.45;;;;;;;4.92;72.10;100899.31;1687834;85;25639;-60
2024/02/15 07:50:33;;;;;;;85.55;78.83;;;;;;;4.94;72.14;100893.67;1688237;85;25582;-59
2024/02/15 07:52:59;;;;;;;87.37;79.72;;;;;;;4.93;72.06;100890.19;1688101;85;25659;-60
2024/02/15 07:55:26;;;;;;;82.60;76.10;;;;;;;4.96;72.35;100892.90;1688235;85;25493;-59
2024/02/15 07:57:58;;;;;;;85.87;78.62;;;;;;;4.97;72.29;100883.27;1687994;85;25746;-57
2024/02/15 08:00:26;;;;;;;81.53;74.77;;;;;;;5.01;72.48;100888.92;1687810;84;25742;-59
2024/02/15 08:02:53;;;;;;;25.60;13.80;;;;;;;5.02;72.79;100877.11;1688113;85;25410;-59
2024/02/15 08:05:22;;;;;;;27.93;15.23;;;;;;;5.13;72.96;100898.13;1663250;85;25642;-56
2024/02/15 08:07:49;;;;;;;28.92;16.15;;;;;;;5.17;72.89;100896.53;1688277;85;25531;-60
2024/02/15 08:10:18;;;;;;;32.33;16.55;;;;;;;5.18;73.00;100897.62;1688058;85;27415;-58
2024/02/15 08:12:49;;;;;;;29.40;16.40;;;;;;;5.32;73.40;100905.22;1688019;85;25646;-53
2024/02/15 08:15:15;;;;;;;30.80;15.35;;;;;;;5.31;73.49;100893.69;1688201;85;25487;-57
2024/02/15 08:17:46;;;;;;;29.60;15.38;;;;;;;5.36;73.52;100891.04;1687965;85;25688;-56
2024/02/15 08:20:21;;;;;;;28.23;15.75;;;;;;;5.43;74.17;100897.48;1687993;85;25437;-52
2024/02/15 08:22:44;;;;;;;32.83;17.05;;;;;;;5.49;74.18;100895.13;1688025;85;27343;-53
2024/02/15 08:25:17;;;;;;;28.92;16.50;;;;;;;5.50;73.94;100899.43;1688017;85;25525;-52
2024/02/15 08:27:54;;;;;;;33.55;16.65;;;;;;;5.54;73.95;100902.40;1688206;85;25650;-54
2024/02/15 08:30:24;;;;;;;33.23;16.50;;;;;;;5.59;74.32;100904.56;1687897;85;25532;-56
2024/02/15 08:32:54;;;;;;;36.40;18.00;;;;;;;5.71;74.49;100902.22;1656302;86;25829;-55
2024/02/15 08:35:22;;;;;;;35.43;19.02;;;;;;;5.83;75.00;100908.17;1644335;87;29526;-52
2024/02/15 08:37:52;;;;;;;28.40;17.40;;;;;;;5.84;74.68;100909.80;1659067;86;26776;-52
2024/02/15 08:40:25;;;;;;;40.10;19.27;;;;;;;5.90;74.65;100912.77;1659061;85;25584;-52
2024/02/15 08:42:51;;;;;;;28.38;17.67;;;;;;;5.87;74.73;100909.80;1658901;85;26236;-52
2024/02/15 08:45:17;;;;;;;39.83;19.57;;;;;;;5.86;74.81;100908.20;1659234;86;25415;-52
2024/02/15 08:47:46;;;;;;;33.53;18.35;;;;;;;5.88;75.14;100912.77;1659088;86;27316;-53
2024/02/15 08:50:16;;;;;;;36.90;18.52;;;;;;;5.96;75.55;100916.33;1658973;86;25646;-52
2024/02/15 08:52:44;;;;;;;37.05;17.80;;;;;;;6.04;75.54;100911.77;1659051;86;25583;-53
2024/02/15 08:55:17;;;;;;;34.35;18.67;;;;;;;6.17;75.44;100919.88;1658963;85;25603;-52
2024/02/15 08:57:44;;;;;;;33.08;19.48;;;;;;;6.26;75.36;100918.83;1658149;86;25628;-54
2024/02/15 09:00:18;;;;;;;37.13;19.50;;;;;;;6.30;75.04;100926.11;1659035;86;27425;-51
2024/02/15 09:02:52;;;;;;;35.95;20.05;;;;;;;6.27;74.90;100923.14;1658849;86;25581;-52
2024/02/15 09:05:22;;;;;;;39.80;20.30;;;;;;;6.28;75.11;100930.12;1659091;86;25726;-60
2024/02/15 09:07:51;;;;;;;38.05;19.90;;;;;;;6.23;75.29;100922.04;1658150;86;26650;-60
2024/02/15 09:10:19;;;;;;;34.70;19.37;;;;;;;6.19;75.59;100925.80;1657845;86;26056;-61
2024/02/15 09:12:48;;;;;;;37.88;20.00;;;;;;;6.18;75.76;100924.20;1658385;85;27782;-60
2024/02/15 09:15:18;;;;;;;32.88;19.12;;;;;;;6.21;75.75;100921.50;1658399;86;25736;-60
2024/02/15 09:17:45;;;;;;;36.30;19.67;;;;;;;6.21;75.77;100923.64;1658433;86;25771;-60
2024/02/15 09:20:20;;;;;;;38.42;19.25;;;;;;;6.24;76.08;100921.78;1658514;86;26010;-57
2024/02/15 09:22:56;;;;;;;39.78;20.90;;;;;;;6.20;76.27;100922.56;1658952;86;25589;-58
2024/02/15 09:25:24;;;;;;;39.35;21.30;;;;;;;6.19;76.47;100925.00;1659001;86;27355;-58
2024/02/15 09:27:53;;;;;;;43.68;20.40;;;;;;;6.23;76.84;100928.24;1658916;86;25636;-54
2024/02/15 09:30:24;;;;;;;40.05;21.85;;;;;;;6.30;77.01;100929.31;1658970;86;25653;-51
2024/02/15 09:32:49;;;;;;;42.65;21.55;;;;;;;6.36;77.10;100930.41;1659134;85;25971;-53
2024/02/15 09:35:15;;;;;;;40.28;21.15;;;;;;;6.40;77.25;100934.70;1654490;86;25591;-55
2024/02/15 09:37:50;;;;;;;42.93;22.30;;;;;;;6.45;77.37;100936.61;1654433;85;27301;-53
2024/02/15 09:40:20;;;;;;;40.50;22.60;;;;;;;6.47;77.62;100933.94;1654449;86;25407;-54
2024/02/15 09:42:48;;;;;;;40.25;22.77;;;;;;;6.45;77.71;100936.09;1654517;86;25478;-55
2024/02/15 09:45:17;;;;;;;41.42;22.67;;;;;;;6.44;78.01;100933.13;1654410;86;25640;-52
2024/02/15 09:47:49;;;;;;;45.05;22.55;;;;;;;6.43;78.07;100931.50;1654470;86;25430;-54
2024/02/15 09:50:18;;;;;;;37.23;21.87;;;;;;;6.43;78.13;100925.33;1654479;86;27344;-53
2024/02/15 09:52:54;;;;;;;49.63;23.02;;;;;;;6.46;78.25;100930.17;1654343;86;25644;-54
2024/02/15 09:55:24;;;;;;;44.35;22.10;;;;;;;6.49;79.26;100935.83;1654524;86;25492;-59
2024/02/15 09:57:52;;;;;;;43.87;22.58;;;;;;;6.48;78.67;100937.43;1654410;86;26247;-59
2024/02/15 10:00:23;;;;;;;41.02;23.00;;;;;;;6.43;78.56;100930.70;1654455;86;25621;-60
2024/02/15 10:02:56;;;;;;;45.28;22.85;;;;;;;6.41;78.88;100934.20;1654427;85;26941;-59
2024/02/15 10:05:23;;;;;;;47.50;23.32;;;;;;;6.36;78.98;100933.09;1654381;86;25444;-59
2024/02/15 10:07:51;;;;;;;42.35;22.25;;;;;;;6.37;79.25;100931.23;1654523;85;25649;-59
2024/02/15 10:10:25;;;;;;;49.25;22.75;;;;;;;6.39;79.41;100935.00;1654427;86;26179;-59
2024/02/15 10:12:55;;;;;;;43.80;21.52;;;;;;;6.41;79.54;100938.22;1654436;86;25422;-59
2024/02/15 10:15:40;;;;;;;42.35;22.17;;;;;;;6.38;79.44;100932.83;1654461;86;27850;-56
2024/02/15 10:18:11;;;;;;;42.20;21.75;;;;;;;6.38;79.58;100934.72;1654326;86;25561;-59
2024/02/15 10:20:46;;;;;;;47.40;23.70;;;;;;;6.38;79.45;100934.17;1654535;85;25488;-58
2024/02/15 10:23:18;;;;;;;43.68;23.20;;;;;;;6.38;79.69;100935.52;1654469;86;25564;-57
2024/02/15 10:25:47;;;;;;;40.67;21.20;;;;;;;6.36;80.17;100943.84;1654459;86;25416;-58
2024/02/15 10:28:19;;;;;;;39.45;23.55;;;;;;;6.36;80.26;100928.27;1654284;86;27382;-57
2024/02/15 10:30:48;;;;;;;37.90;21.35;;;;;;;6.36;80.50;100920.20;1651629;84;25448;-58
2024/02/15 10:33:31;;;;;;;42.73;23.57;;;;;;;6.41;81.27;100930.96;1656845;85;25529;-56
2024/02/15 10:36:13;;;;;;;43.65;25.95;;;;;;;6.44;80.99;100922.38;1659018;86;25622;-52
2024/02/15 10:38:41;;;;;;;41.53;23.12;;;;;;;6.44;81.02;100929.64;1659020;85;25457;-58
2024/02/15 10:41:10;;;;;;;45.67;23.83;;;;;;;6.48;81.28;100923.99;1659070;85;27386;-58
2024/02/15 10:43:40;;;;;;;42.13;23.77;;;;;;;6.52;81.51;100912.45;1658936;85;25645;-57
2024/02/15 10:46:10;;;;;;;44.33;23.70;;;;;;;6.60;81.65;100916.48;1658967;86;25601;-59
2024/02/15 10:48:39;;;;;;;45.92;24.75;;;;;;;6.65;81.45;100918.37;1658647;85;25719;-58
2024/02/15 10:51:11;;;;;;;41.02;23.92;;;;;;;6.63;81.31;100907.89;1659095;86;25459;-57
2024/02/15 10:53:45;;;;;;;43.73;24.10;;;;;;;6.66;81.72;100922.14;1659083;86;27757;-59
2024/02/15 10:56:24;;;;;;;46.30;24.50;;;;;;;6.61;82.28;100915.97;1658961;85;25626;-58
2024/02/15 10:59:08;;;;;;;46.53;25.32;;;;;;;6.55;82.46;100905.72;1659174;85;25418;-59
2024/02/15 11:01:38;;;;;;;43.55;24.10;;;;;;;6.59;83.01;100906.81;1658798;84;25693;-59
2024/02/15 11:04:08;;;;;;;42.83;23.45;;;;;;;6.61;82.75;100901.98;1658967;86;25662;-56
2024/02/15 11:06:41;;;;;;;43.13;23.62;;;;;;;6.71;83.42;100906.56;1659028;86;27367;-57
2024/02/15 11:09:13;;;;;;;38.48;23.25;;;;;;;6.84;83.71;100906.01;1658951;86;25996;-58
2024/02/15 11:11:44;;;;;;;43.08;23.20;;;;;;;6.96;83.10;100902.25;1658836;85;25746;-59
2024/02/15 11:14:33;;;;;;;36.20;22.37;;;;;;;7.07;82.91;100898.49;1659003;86;25641;-59
2024/02/15 11:17:09;;;;;;;42.30;23.07;;;;;;;7.16;82.69;100889.33;1659267;86;25628;-57
2024/02/15 11:19:41;;;;;;;37.45;22.50;;;;;;;7.26;82.79;100896.05;1658849;86;27430;-55
2024/02/15 11:22:17;;;;;;;45.05;23.18;;;;;;;7.29;82.32;100895.50;1659055;85;25570;-60
2024/02/15 11:24:53;;;;;;;37.58;23.22;;;;;;;7.32;82.18;100908.42;1659155;86;25415;-58
2024/02/15 11:27:31;;;;;;;45.08;23.75;;;;;;;7.28;82.10;100892.53;1659086;86;25400;-57
2024/02/15 11:32:56;;;;;;;42.20;23.55;;;;;;;7.31;81.96;100889.31;1658630;85;28381;-59
2024/02/15 11:35:29;;;;;;;46.98;23.98;;;;;;;7.31;81.96;100887.96;1654546;86;25409;-59
2024/02/15 11:37:59;;;;;;;38.28;22.82;;;;;;;7.35;82.05;100885.53;1654729;86;25450;-58
2024/02/15 11:40:41;;;;;;;42.40;24.57;;;;;;;7.38;82.12;100884.99;1654631;86;25749;-60
2024/02/15 11:43:14;;;;;;;44.55;24.02;;;;;;;7.39;82.28;100883.38;1653702;86;25648;-59
2024/02/15 11:45:42;;;;;;;42.08;22.98;;;;;;;7.38;82.12;100872.33;1655047;85;27302;-58
2024/02/15 11:48:15;;;;;;;51.33;29.15;;;;;;;7.41;82.54;100879.86;1588777;89;25592;-58